sensor_id;sensor_type;location;lat;lon;timestamp;P1;durP1;ratioP1;P2;durP2;ratioP2
3875;SDS011;1953;51.222;6.624;2023-03-12T00:00:51;17.83;;;10.50;;
3875;SDS011;1953;51.222;6.624;2023-03-12T00:10:08;17.50;;;10.47;;
3875;SDS011;1953;51.222;6.624;2023-03-12T00:14:52;15.33;;;9.17;;
3875;SDS011;1953;51.222;6.624;2023-03-12T00:19:34;17.90;;;10.27;;
3875;SDS011;1953;51.222;6.624;2023-03-12T00:24:16;14.13;;;9.07;;
3875;SDS011;1953;51.222;6.624;2023-03-12T00:29:00;16.90;;;10.43;;
3875;SDS011;1953;51.222;6.624;2023-03-12T00:33:42;16.60;;;10.53;;
3875;SDS011;1953;51.222;6.624;2023-03-12T00:38:25;24.53;;;10.63;;
3875;SDS011;1953;51.222;6.624;2023-03-12T00:43:07;18.17;;;11.70;;
3875;SDS011;1953;51.222;6.624;2023-03-12T00:47:51;18.60;;;11.67;;
3875;SDS011;1953;51.222;6.624;2023-03-12T00:52:34;24.07;;;13.27;;
3875;SDS011;1953;51.222;6.624;2023-03-12T00:57:16;22.73;;;12.33;;
3875;SDS011;1953;51.222;6.624;2023-03-12T01:01:58;21.37;;;13.37;;
3875;SDS011;1953;51.222;6.624;2023-03-12T01:06:42;18.33;;;12.70;;
3875;SDS011;1953;51.222;6.624;2023-03-12T01:11:25;22.80;;;14.20;;
3875;SDS011;1953;51.222;6.624;2023-03-12T01:16:09;25.60;;;13.87;;
3875;SDS011;1953;51.222;6.624;2023-03-12T01:20:51;17.70;;;12.70;;
3875;SDS011;1953;51.222;6.624;2023-03-12T01:25:35;25.03;;;14.33;;
3875;SDS011;1953;51.222;6.624;2023-03-12T01:30:18;21.77;;;14.20;;
3875;SDS011;1953;51.222;6.624;2023-03-12T01:35:00;20.93;;;13.23;;
3875;SDS011;1953;51.222;6.624;2023-03-12T01:39:43;22.67;;;12.70;;
3875;SDS011;1953;51.222;6.624;2023-03-12T01:44:27;19.80;;;12.10;;
3875;SDS011;1953;51.222;6.624;2023-03-12T01:49:10;26.83;;;12.20;;
3875;SDS011;1953;51.222;6.624;2023-03-12T01:53:55;22.37;;;11.70;;
3875;SDS011;1953;51.222;6.624;2023-03-12T01:58:41;26.43;;;12.43;;
3875;SDS011;1953;51.222;6.624;2023-03-12T02:03:27;21.43;;;11.70;;
3875;SDS011;1953;51.222;6.624;2023-03-12T02:08:10;16.70;;;10.90;;
3875;SDS011;1953;51.222;6.624;2023-03-12T02:12:54;15.60;;;9.70;;
3875;SDS011;1953;51.222;6.624;2023-03-12T02:17:36;14.80;;;10.10;;
3875;SDS011;1953;51.222;6.624;2023-03-12T02:22:21;16.33;;;10.30;;
3875;SDS011;1953;51.222;6.624;2023-03-12T02:27:05;17.20;;;9.30;;
3875;SDS011;1953;51.222;6.624;2023-03-12T02:31:51;14.63;;;9.07;;
3875;SDS011;1953;51.222;6.624;2023-03-12T02:36:35;17.33;;;10.10;;
3875;SDS011;1953;51.222;6.624;2023-03-12T02:41:19;12.97;;;8.30;;
3875;SDS011;1953;51.222;6.624;2023-03-12T02:46:04;18.60;;;8.20;;
3875;SDS011;1953;51.222;6.624;2023-03-12T02:50:48;13.37;;;9.17;;
3875;SDS011;1953;51.222;6.624;2023-03-12T02:55:31;22.53;;;8.90;;
3875;SDS011;1953;51.222;6.624;2023-03-12T03:00:13;21.00;;;9.13;;
3875;SDS011;1953;51.222;6.624;2023-03-12T03:04:58;14.00;;;8.80;;
3875;SDS011;1953;51.222;6.624;2023-03-12T03:09:40;16.13;;;9.13;;
3875;SDS011;1953;51.222;6.624;2023-03-12T03:14:23;13.60;;;8.00;;
3875;SDS011;1953;51.222;6.624;2023-03-12T03:19:05;19.23;;;8.47;;
3875;SDS011;1953;51.222;6.624;2023-03-12T03:23:49;14.60;;;8.10;;
3875;SDS011;1953;51.222;6.624;2023-03-12T03:28:32;11.57;;;8.00;;
3875;SDS011;1953;51.222;6.624;2023-03-12T03:33:15;14.53;;;7.77;;
3875;SDS011;1953;51.222;6.624;2023-03-12T03:37:57;11.53;;;7.03;;
3875;SDS011;1953;51.222;6.624;2023-03-12T03:42:41;16.50;;;8.17;;
3875;SDS011;1953;51.222;6.624;2023-03-12T03:47:23;13.13;;;8.33;;
3875;SDS011;1953;51.222;6.624;2023-03-12T03:52:06;14.87;;;7.90;;
3875;SDS011;1953;51.222;6.624;2023-03-12T03:56:48;13.90;;;7.53;;
3875;SDS011;1953;51.222;6.624;2023-03-12T04:01:32;11.67;;;8.23;;
3875;SDS011;1953;51.222;6.624;2023-03-12T04:06:14;10.00;;;6.93;;
3875;SDS011;1953;51.222;6.624;2023-03-12T04:10:57;11.07;;;7.40;;
3875;SDS011;1953;51.222;6.624;2023-03-12T04:15:44;14.87;;;8.37;;
3875;SDS011;1953;51.222;6.624;2023-03-12T04:20:28;11.70;;;7.30;;
3875;SDS011;1953;51.222;6.624;2023-03-12T04:25:11;12.10;;;7.50;;
3875;SDS011;1953;51.222;6.624;2023-03-12T04:29:54;10.43;;;7.30;;
3875;SDS011;1953;51.222;6.624;2023-03-12T04:34:36;15.90;;;7.87;;
3875;SDS011;1953;51.222;6.624;2023-03-12T04:39:20;13.80;;;7.60;;
3875;SDS011;1953;51.222;6.624;2023-03-12T04:44:02;13.50;;;7.70;;
3875;SDS011;1953;51.222;6.624;2023-03-12T04:48:45;12.33;;;7.47;;
3875;SDS011;1953;51.222;6.624;2023-03-12T04:53:27;14.03;;;8.10;;
3875;SDS011;1953;51.222;6.624;2023-03-12T04:58:11;11.50;;;7.57;;
3875;SDS011;1953;51.222;6.624;2023-03-12T05:02:53;10.97;;;8.00;;
3875;SDS011;1953;51.222;6.624;2023-03-12T05:07:36;14.00;;;7.20;;
3875;SDS011;1953;51.222;6.624;2023-03-12T05:12:18;14.20;;;7.80;;
3875;SDS011;1953;51.222;6.624;2023-03-12T05:17:02;9.43;;;6.70;;
3875;SDS011;1953;51.222;6.624;2023-03-12T05:21:45;8.87;;;6.60;;
3875;SDS011;1953;51.222;6.624;2023-03-12T05:26:28;13.20;;;6.50;;
3875;SDS011;1953;51.222;6.624;2023-03-12T05:31:12;13.73;;;6.80;;
3875;SDS011;1953;51.222;6.624;2023-03-12T05:35:56;11.10;;;6.10;;
3875;SDS011;1953;51.222;6.624;2023-03-12T05:40:39;12.40;;;6.47;;
3875;SDS011;1953;51.222;6.624;2023-03-12T05:45:21;8.60;;;6.40;;
3875;SDS011;1953;51.222;6.624;2023-03-12T05:50:04;7.23;;;5.83;;
3875;SDS011;1953;51.222;6.624;2023-03-12T05:54:48;12.60;;;6.60;;
3875;SDS011;1953;51.222;6.624;2023-03-12T05:59:33;14.40;;;6.80;;
3875;SDS011;1953;51.222;6.624;2023-03-12T06:04:15;12.57;;;7.30;;
3875;SDS011;1953;51.222;6.624;2023-03-12T06:08:58;12.80;;;7.17;;
3875;SDS011;1953;51.222;6.624;2023-03-12T06:13:42;13.10;;;7.30;;
3875;SDS011;1953;51.222;6.624;2023-03-12T06:18:24;16.63;;;8.37;;
3875;SDS011;1953;51.222;6.624;2023-03-12T06:23:07;15.00;;;8.13;;
3875;SDS011;1953;51.222;6.624;2023-03-12T06:27:49;14.93;;;8.20;;
3875;SDS011;1953;51.222;6.624;2023-03-12T06:32:33;15.63;;;8.80;;
3875;SDS011;1953;51.222;6.624;2023-03-12T06:37:16;15.10;;;8.17;;
3875;SDS011;1953;51.222;6.624;2023-03-12T06:41:58;12.60;;;8.13;;
3875;SDS011;1953;51.222;6.624;2023-03-12T06:46:40;13.50;;;7.80;;
3875;SDS011;1953;51.222;6.624;2023-03-12T06:51:25;11.07;;;8.00;;
3875;SDS011;1953;51.222;6.624;2023-03-12T06:56:07;13.60;;;7.83;;
3875;SDS011;1953;51.222;6.624;2023-03-12T07:00:51;11.77;;;7.37;;
3875;SDS011;1953;51.222;6.624;2023-03-12T07:05:33;11.03;;;7.70;;
3875;SDS011;1953;51.222;6.624;2023-03-12T07:10:17;12.80;;;7.73;;
3875;SDS011;1953;51.222;6.624;2023-03-12T07:14:59;11.33;;;8.03;;
3875;SDS011;1953;51.222;6.624;2023-03-12T07:19:42;17.03;;;8.20;;
3875;SDS011;1953;51.222;6.624;2023-03-12T07:24:24;11.17;;;7.23;;
3875;SDS011;1953;51.222;6.624;2023-03-12T07:29:08;15.67;;;7.43;;
3875;SDS011;1953;51.222;6.624;2023-03-12T07:33:51;16.37;;;8.23;;
3875;SDS011;1953;51.222;6.624;2023-03-12T07:38:33;12.27;;;7.50;;
3875;SDS011;1953;51.222;6.624;2023-03-12T07:43:15;18.80;;;8.40;;
3875;SDS011;1953;51.222;6.624;2023-03-12T07:47:59;16.63;;;7.47;;
3875;SDS011;1953;51.222;6.624;2023-03-12T07:52:42;12.37;;;7.77;;
3875;SDS011;1953;51.222;6.624;2023-03-12T07:57:24;14.50;;;8.30;;
3875;SDS011;1953;51.222;6.624;2023-03-12T08:02:08;13.27;;;8.67;;
3875;SDS011;1953;51.222;6.624;2023-03-12T08:06:52;15.37;;;7.70;;
3875;SDS011;1953;51.222;6.624;2023-03-12T08:11:34;12.27;;;8.00;;
3875;SDS011;1953;51.222;6.624;2023-03-12T08:16:18;11.83;;;7.87;;
3875;SDS011;1953;51.222;6.624;2023-03-12T08:21:00;16.60;;;7.87;;
3875;SDS011;1953;51.222;6.624;2023-03-12T08:25:44;15.83;;;9.03;;
3875;SDS011;1953;51.222;6.624;2023-03-12T08:30:27;12.73;;;8.40;;
3875;SDS011;1953;51.222;6.624;2023-03-12T08:35:10;18.47;;;8.93;;
3875;SDS011;1953;51.222;6.624;2023-03-12T08:39:52;13.90;;;9.20;;
3875;SDS011;1953;51.222;6.624;2023-03-12T08:44:36;15.37;;;10.00;;
3875;SDS011;1953;51.222;6.624;2023-03-12T08:49:19;14.00;;;9.23;;
3875;SDS011;1953;51.222;6.624;2023-03-12T08:54:02;17.90;;;9.87;;
3875;SDS011;1953;51.222;6.624;2023-03-12T08:58:45;17.90;;;11.97;;
3875;SDS011;1953;51.222;6.624;2023-03-12T09:03:29;17.90;;;10.37;;
3875;SDS011;1953;51.222;6.624;2023-03-12T09:08:11;20.63;;;10.43;;
3875;SDS011;1953;51.222;6.624;2023-03-12T09:12:54;27.43;;;11.60;;
3875;SDS011;1953;51.222;6.624;2023-03-12T09:17:36;19.10;;;10.40;;
3875;SDS011;1953;51.222;6.624;2023-03-12T09:22:20;17.37;;;10.23;;
3875;SDS011;1953;51.222;6.624;2023-03-12T09:27:03;17.77;;;10.90;;
3875;SDS011;1953;51.222;6.624;2023-03-12T09:31:45;20.10;;;11.87;;
3875;SDS011;1953;51.222;6.624;2023-03-12T09:36:28;16.87;;;11.30;;
3875;SDS011;1953;51.222;6.624;2023-03-12T09:41:19;17.30;;;12.53;;
3875;SDS011;1953;51.222;6.624;2023-03-12T09:46:03;19.50;;;13.33;;
3875;SDS011;1953;51.222;6.624;2023-03-12T09:50:50;19.83;;;13.10;;
3875;SDS011;1953;51.222;6.624;2023-03-12T09:55:34;25.03;;;15.60;;
3875;SDS011;1953;51.222;6.624;2023-03-12T10:00:20;19.10;;;12.77;;
3875;SDS011;1953;51.222;6.624;2023-03-12T10:05:05;20.47;;;14.43;;
3875;SDS011;1953;51.222;6.624;2023-03-12T10:10:04;24.40;;;15.13;;
3875;SDS011;1953;51.222;6.624;2023-03-12T10:14:59;21.23;;;14.07;;
3875;SDS011;1953;51.222;6.624;2023-03-12T10:19:54;22.70;;;12.90;;
3875;SDS011;1953;51.222;6.624;2023-03-12T10:24:50;23.37;;;14.60;;
3875;SDS011;1953;51.222;6.624;2023-03-12T10:29:40;19.87;;;13.20;;
3875;SDS011;1953;51.222;6.624;2023-03-12T10:34:27;18.17;;;12.50;;
3875;SDS011;1953;51.222;6.624;2023-03-12T10:39:14;21.97;;;13.77;;
3875;SDS011;1953;51.222;6.624;2023-03-12T10:43:59;21.40;;;13.50;;
3875;SDS011;1953;51.222;6.624;2023-03-12T10:48:46;20.43;;;13.43;;
3875;SDS011;1953;51.222;6.624;2023-03-12T10:53:30;20.90;;;13.40;;
3875;SDS011;1953;51.222;6.624;2023-03-12T10:58:22;21.20;;;14.07;;
3875;SDS011;1953;51.222;6.624;2023-03-12T11:03:09;28.77;;;16.93;;
3875;SDS011;1953;51.222;6.624;2023-03-12T11:08:01;26.73;;;14.93;;
3875;SDS011;1953;51.222;6.624;2023-03-12T11:12:55;21.80;;;15.60;;
3875;SDS011;1953;51.222;6.624;2023-03-12T11:17:41;29.00;;;15.17;;
3875;SDS011;1953;51.222;6.624;2023-03-12T11:22:28;26.87;;;15.27;;
3875;SDS011;1953;51.222;6.624;2023-03-12T11:27:14;27.60;;;18.00;;
3875;SDS011;1953;51.222;6.624;2023-03-12T11:32:09;29.50;;;15.83;;
3875;SDS011;1953;51.222;6.624;2023-03-12T11:37:02;20.40;;;12.23;;
3875;SDS011;1953;51.222;6.624;2023-03-12T11:41:58;28.30;;;13.23;;
3875;SDS011;1953;51.222;6.624;2023-03-12T11:46:55;27.00;;;12.23;;
3875;SDS011;1953;51.222;6.624;2023-03-12T11:51:49;27.53;;;13.80;;
3875;SDS011;1953;51.222;6.624;2023-03-12T11:56:39;34.43;;;14.17;;
3875;SDS011;1953;51.222;6.624;2023-03-12T12:01:28;43.37;;;16.07;;
3875;SDS011;1953;51.222;6.624;2023-03-12T12:11:09;33.97;;;13.30;;
3875;SDS011;1953;51.222;6.624;2023-03-12T12:16:01;40.20;;;15.07;;
3875;SDS011;1953;51.222;6.624;2023-03-12T12:20:55;38.13;;;12.60;;
3875;SDS011;1953;51.222;6.624;2023-03-12T12:25:51;35.13;;;11.90;;
3875;SDS011;1953;51.222;6.624;2023-03-12T12:30:45;34.13;;;11.73;;
3875;SDS011;1953;51.222;6.624;2023-03-12T12:35:36;32.77;;;11.47;;
3875;SDS011;1953;51.222;6.624;2023-03-12T12:40:20;34.03;;;11.27;;
3875;SDS011;1953;51.222;6.624;2023-03-12T12:45:09;28.37;;;10.50;;
3875;SDS011;1953;51.222;6.624;2023-03-12T12:49:57;36.13;;;10.80;;
3875;SDS011;1953;51.222;6.624;2023-03-12T12:54:43;29.70;;;10.27;;
3875;SDS011;1953;51.222;6.624;2023-03-12T12:59:35;37.57;;;10.20;;
3875;SDS011;1953;51.222;6.624;2023-03-12T13:04:23;32.67;;;10.80;;
3875;SDS011;1953;51.222;6.624;2023-03-12T13:09:14;32.20;;;10.20;;
3875;SDS011;1953;51.222;6.624;2023-03-12T13:14:14;25.73;;;9.57;;
3875;SDS011;1953;51.222;6.624;2023-03-12T13:19:03;34.60;;;9.20;;
3875;SDS011;1953;51.222;6.624;2023-03-12T13:23:49;26.23;;;7.97;;
3875;SDS011;1953;51.222;6.624;2023-03-12T13:33:11;35.17;;;7.10;;
3875;SDS011;1953;51.222;6.624;2023-03-12T13:37:58;27.73;;;7.43;;
3875;SDS011;1953;51.222;6.624;2023-03-12T13:42:43;27.00;;;7.17;;
3875;SDS011;1953;51.222;6.624;2023-03-12T13:47:41;29.00;;;7.80;;
3875;SDS011;1953;51.222;6.624;2023-03-12T13:52:26;27.77;;;7.37;;
3875;SDS011;1953;51.222;6.624;2023-03-12T13:57:11;32.97;;;7.03;;
3875;SDS011;1953;51.222;6.624;2023-03-12T14:02:07;24.43;;;6.97;;
3875;SDS011;1953;51.222;6.624;2023-03-12T14:07:00;19.40;;;6.37;;
3875;SDS011;1953;51.222;6.624;2023-03-12T14:12:03;15.70;;;5.30;;
3875;SDS011;1953;51.222;6.624;2023-03-12T14:16:49;20.00;;;5.77;;
3875;SDS011;1953;51.222;6.624;2023-03-12T14:21:35;24.43;;;5.97;;
3875;SDS011;1953;51.222;6.624;2023-03-12T14:26:20;20.27;;;6.60;;
3875;SDS011;1953;51.222;6.624;2023-03-12T14:31:08;20.00;;;5.00;;
3875;SDS011;1953;51.222;6.624;2023-03-12T14:35:54;21.03;;;5.80;;
3875;SDS011;1953;51.222;6.624;2023-03-12T14:40:42;20.23;;;6.00;;
3875;SDS011;1953;51.222;6.624;2023-03-12T14:45:29;21.77;;;6.03;;
3875;SDS011;1953;51.222;6.624;2023-03-12T14:50:16;24.03;;;5.93;;
3875;SDS011;1953;51.222;6.624;2023-03-12T14:55:01;23.33;;;5.40;;
3875;SDS011;1953;51.222;6.624;2023-03-12T14:59:50;25.43;;;6.90;;
3875;SDS011;1953;51.222;6.624;2023-03-12T15:04:34;21.90;;;6.30;;
3875;SDS011;1953;51.222;6.624;2023-03-12T15:09:18;24.33;;;3.90;;
3875;SDS011;1953;51.222;6.624;2023-03-12T15:14:04;20.37;;;6.00;;
3875;SDS011;1953;51.222;6.624;2023-03-12T15:18:49;28.37;;;5.80;;
3875;SDS011;1953;51.222;6.624;2023-03-12T15:23:33;28.30;;;6.70;;
3875;SDS011;1953;51.222;6.624;2023-03-12T15:28:26;35.43;;;6.40;;
3875;SDS011;1953;51.222;6.624;2023-03-12T15:33:10;14.40;;;3.83;;
3875;SDS011;1953;51.222;6.624;2023-03-12T15:38:04;23.13;;;5.93;;
3875;SDS011;1953;51.222;6.624;2023-03-12T15:42:47;23.80;;;5.70;;
3875;SDS011;1953;51.222;6.624;2023-03-12T15:47:31;24.63;;;5.53;;
3875;SDS011;1953;51.222;6.624;2023-03-12T15:52:30;24.63;;;6.03;;
3875;SDS011;1953;51.222;6.624;2023-03-12T15:57:18;28.80;;;6.77;;
3875;SDS011;1953;51.222;6.624;2023-03-12T16:02:03;26.67;;;6.13;;
3875;SDS011;1953;51.222;6.624;2023-03-12T16:06:47;15.50;;;4.40;;
3875;SDS011;1953;51.222;6.624;2023-03-12T16:11:30;18.23;;;4.70;;
3875;SDS011;1953;51.222;6.624;2023-03-12T16:16:16;20.30;;;5.00;;
3875;SDS011;1953;51.222;6.624;2023-03-12T16:20:58;25.73;;;5.80;;
3875;SDS011;1953;51.222;6.624;2023-03-12T16:25:42;18.90;;;4.57;;
3875;SDS011;1953;51.222;6.624;2023-03-12T16:30:26;27.00;;;4.97;;
3875;SDS011;1953;51.222;6.624;2023-03-12T16:35:11;23.20;;;5.80;;
3875;SDS011;1953;51.222;6.624;2023-03-12T16:39:55;20.90;;;4.27;;
3875;SDS011;1953;51.222;6.624;2023-03-12T16:44:39;23.77;;;5.83;;
3875;SDS011;1953;51.222;6.624;2023-03-12T16:49:22;26.87;;;6.07;;
3875;SDS011;1953;51.222;6.624;2023-03-12T16:54:04;27.60;;;5.20;;
3875;SDS011;1953;51.222;6.624;2023-03-12T16:58:47;18.73;;;5.70;;
3875;SDS011;1953;51.222;6.624;2023-03-12T17:03:32;20.37;;;5.30;;
3875;SDS011;1953;51.222;6.624;2023-03-12T17:08:16;19.20;;;5.70;;
3875;SDS011;1953;51.222;6.624;2023-03-12T17:12:59;19.67;;;6.23;;
3875;SDS011;1953;51.222;6.624;2023-03-12T17:17:41;22.27;;;5.93;;
3875;SDS011;1953;51.222;6.624;2023-03-12T17:22:25;25.47;;;6.33;;
3875;SDS011;1953;51.222;6.624;2023-03-12T17:27:08;27.93;;;6.50;;
3875;SDS011;1953;51.222;6.624;2023-03-12T17:31:50;20.23;;;6.60;;
3875;SDS011;1953;51.222;6.624;2023-03-12T17:36:34;25.70;;;5.97;;
3875;SDS011;1953;51.222;6.624;2023-03-12T17:41:18;19.50;;;4.77;;
3875;SDS011;1953;51.222;6.624;2023-03-12T17:46:02;19.63;;;5.00;;
3875;SDS011;1953;51.222;6.624;2023-03-12T17:50:45;17.87;;;5.10;;
3875;SDS011;1953;51.222;6.624;2023-03-12T17:55:28;22.03;;;5.77;;
3875;SDS011;1953;51.222;6.624;2023-03-12T18:00:12;21.77;;;5.13;;
3875;SDS011;1953;51.222;6.624;2023-03-12T18:04:55;21.90;;;5.70;;
3875;SDS011;1953;51.222;6.624;2023-03-12T18:09:37;23.43;;;6.07;;
3875;SDS011;1953;51.222;6.624;2023-03-12T18:14:20;23.80;;;5.60;;
3875;SDS011;1953;51.222;6.624;2023-03-12T18:19:04;20.63;;;5.50;;
3875;SDS011;1953;51.222;6.624;2023-03-12T18:23:46;30.73;;;5.40;;
3875;SDS011;1953;51.222;6.624;2023-03-12T18:28:28;25.10;;;5.93;;
3875;SDS011;1953;51.222;6.624;2023-03-12T18:33:11;23.90;;;5.97;;
3875;SDS011;1953;51.222;6.624;2023-03-12T18:37:56;21.60;;;5.50;;
3875;SDS011;1953;51.222;6.624;2023-03-12T18:42:39;23.67;;;5.57;;
3875;SDS011;1953;51.222;6.624;2023-03-12T18:47:23;33.67;;;5.30;;
3875;SDS011;1953;51.222;6.624;2023-03-12T18:52:06;21.07;;;6.10;;
3875;SDS011;1953;51.222;6.624;2023-03-12T18:56:50;25.90;;;5.37;;
3875;SDS011;1953;51.222;6.624;2023-03-12T19:01:32;32.17;;;5.50;;
3875;SDS011;1953;51.222;6.624;2023-03-12T19:06:15;21.07;;;4.73;;
3875;SDS011;1953;51.222;6.624;2023-03-12T19:10:58;26.27;;;5.87;;
3875;SDS011;1953;51.222;6.624;2023-03-12T19:15:41;27.83;;;6.20;;
3875;SDS011;1953;51.222;6.624;2023-03-12T19:20:24;25.00;;;6.60;;
3875;SDS011;1953;51.222;6.624;2023-03-12T19:25:07;27.33;;;7.23;;
3875;SDS011;1953;51.222;6.624;2023-03-12T19:29:50;27.03;;;7.10;;
3875;SDS011;1953;51.222;6.624;2023-03-12T19:34:34;29.03;;;6.37;;
3875;SDS011;1953;51.222;6.624;2023-03-12T19:39:16;30.20;;;6.50;;
3875;SDS011;1953;51.222;6.624;2023-03-12T19:43:59;30.60;;;6.10;;
3875;SDS011;1953;51.222;6.624;2023-03-12T19:48:42;23.83;;;6.20;;
3875;SDS011;1953;51.222;6.624;2023-03-12T19:53:26;28.47;;;7.47;;
3875;SDS011;1953;51.222;6.624;2023-03-12T19:58:08;27.03;;;7.50;;
3875;SDS011;1953;51.222;6.624;2023-03-12T20:02:51;31.13;;;8.37;;
3875;SDS011;1953;51.222;6.624;2023-03-12T20:07:34;31.63;;;7.90;;
3875;SDS011;1953;51.222;6.624;2023-03-12T20:12:18;35.97;;;8.67;;
3875;SDS011;1953;51.222;6.624;2023-03-12T20:17:00;26.47;;;6.87;;
3875;SDS011;1953;51.222;6.624;2023-03-12T20:21:43;23.60;;;6.57;;
3875;SDS011;1953;51.222;6.624;2023-03-12T20:26:27;26.57;;;7.30;;
3875;SDS011;1953;51.222;6.624;2023-03-12T20:31:12;23.00;;;6.83;;
3875;SDS011;1953;51.222;6.624;2023-03-12T20:35:55;24.93;;;7.03;;
3875;SDS011;1953;51.222;6.624;2023-03-12T20:40:38;23.53;;;5.67;;
3875;SDS011;1953;51.222;6.624;2023-03-12T20:45:20;33.60;;;7.57;;
3875;SDS011;1953;51.222;6.624;2023-03-12T20:50:04;26.30;;;6.40;;
3875;SDS011;1953;51.222;6.624;2023-03-12T20:54:47;26.03;;;6.40;;
3875;SDS011;1953;51.222;6.624;2023-03-12T20:59:30;22.83;;;6.13;;
3875;SDS011;1953;51.222;6.624;2023-03-12T21:04:12;23.13;;;7.17;;
3875;SDS011;1953;51.222;6.624;2023-03-12T21:08:56;29.17;;;6.60;;
3875;SDS011;1953;51.222;6.624;2023-03-12T21:13:39;22.50;;;6.30;;
3875;SDS011;1953;51.222;6.624;2023-03-12T21:18:21;20.97;;;5.90;;
3875;SDS011;1953;51.222;6.624;2023-03-12T21:23:04;25.30;;;6.60;;
3875;SDS011;1953;51.222;6.624;2023-03-12T21:27:48;22.57;;;6.33;;
3875;SDS011;1953;51.222;6.624;2023-03-12T21:32:31;17.70;;;6.10;;
3875;SDS011;1953;51.222;6.624;2023-03-12T21:37:13;21.43;;;6.00;;
3875;SDS011;1953;51.222;6.624;2023-03-12T21:41:56;24.33;;;6.03;;
3875;SDS011;1953;51.222;6.624;2023-03-12T21:46:40;25.13;;;6.83;;
3875;SDS011;1953;51.222;6.624;2023-03-12T21:51:23;18.57;;;6.30;;
3875;SDS011;1953;51.222;6.624;2023-03-12T21:56:06;27.40;;;6.53;;
3875;SDS011;1953;51.222;6.624;2023-03-12T22:00:49;29.50;;;6.07;;
3875;SDS011;1953;51.222;6.624;2023-03-12T22:05:33;18.67;;;5.67;;
3875;SDS011;1953;51.222;6.624;2023-03-12T22:10:15;22.30;;;5.50;;
3875;SDS011;1953;51.222;6.624;2023-03-12T22:14:58;19.73;;;5.73;;
3875;SDS011;1953;51.222;6.624;2023-03-12T22:19:40;17.50;;;5.10;;
3875;SDS011;1953;51.222;6.624;2023-03-12T22:24:24;16.77;;;4.77;;
3875;SDS011;1953;51.222;6.624;2023-03-12T22:29:07;17.63;;;5.30;;
3875;SDS011;1953;51.222;6.624;2023-03-12T22:33:49;18.70;;;5.40;;
3875;SDS011;1953;51.222;6.624;2023-03-12T22:38:32;18.67;;;5.17;;
3875;SDS011;1953;51.222;6.624;2023-03-12T22:43:17;33.80;;;5.23;;
3875;SDS011;1953;51.222;6.624;2023-03-12T22:48:00;23.00;;;4.27;;
3875;SDS011;1953;51.222;6.624;2023-03-12T22:52:42;17.43;;;4.93;;
3875;SDS011;1953;51.222;6.624;2023-03-12T22:57:24;16.73;;;4.77;;
3875;SDS011;1953;51.222;6.624;2023-03-12T23:02:08;14.83;;;4.13;;
3875;SDS011;1953;51.222;6.624;2023-03-12T23:06:51;16.27;;;3.97;;
3875;SDS011;1953;51.222;6.624;2023-03-12T23:11:33;23.87;;;4.73;;
3875;SDS011;1953;51.222;6.624;2023-03-12T23:16:17;15.10;;;3.47;;
3875;SDS011;1953;51.222;6.624;2023-03-12T23:21:03;21.97;;;4.37;;
3875;SDS011;1953;51.222;6.624;2023-03-12T23:25:50;21.27;;;5.10;;
3875;SDS011;1953;51.222;6.624;2023-03-12T23:30:33;20.67;;;4.63;;
3875;SDS011;1953;51.222;6.624;2023-03-12T23:35:16;20.60;;;4.63;;
3875;SDS011;1953;51.222;6.624;2023-03-12T23:39:59;17.20;;;4.13;;
3875;SDS011;1953;51.222;6.624;2023-03-12T23:44:43;15.83;;;3.80;;
3875;SDS011;1953;51.222;6.624;2023-03-12T23:49:26;24.57;;;4.30;;
3875;SDS011;1953;51.222;6.624;2023-03-12T23:54:08;24.87;;;4.60;;
3875;SDS011;1953;51.222;6.624;2023-03-12T23:58:52;26.73;;;4.33;;
